sensor_id;sensor_type;location;lat;lon;timestamp;pressure;altitude;pressure_sealevel;temperature;humidity
64967;BME280;51710;38.732;-121.358;2023-10-08T00:01:16;100424.22;;;34.28;29.63
64967;BME280;51710;38.732;-121.358;2023-10-08T00:03:43;100423.25;;;34.24;29.89
64967;BME280;51710;38.732;-121.358;2023-10-08T00:06:17;100420.50;;;34.24;30.06
64967;BME280;51710;38.732;-121.358;2023-10-08T00:08:45;100418.66;;;34.20;29.89
64967;BME280;51710;38.732;-121.358;2023-10-08T00:11:13;100410.84;;;34.13;30.23
64967;BME280;51710;38.732;-121.358;2023-10-08T00:13:42;100414.75;;;34.12;30.02
64967;BME280;51710;38.732;-121.358;2023-10-08T00:16:28;100413.13;;;34.11;30.15
64967;BME280;51710;38.732;-121.358;2023-10-08T00:18:54;100415.72;;;34.07;30.06
64967;BME280;51710;38.732;-121.358;2023-10-08T00:21:40;100420.56;;;34.02;29.78
64967;BME280;51710;38.732;-121.358;2023-10-08T00:24:10;100412.09;;;33.98;30.35
64967;BME280;51710;38.732;-121.358;2023-10-08T00:26:38;100414.69;;;33.95;30.02
64967;BME280;51710;38.732;-121.358;2023-10-08T00:29:08;100419.22;;;33.91;30.55
64967;BME280;51710;38.732;-121.358;2023-10-08T00:31:47;100427.16;;;33.84;30.14
64967;BME280;51710;38.732;-121.358;2023-10-08T00:34:16;100415.41;;;33.78;30.91
64967;BME280;51710;38.732;-121.358;2023-10-08T00:36:46;100424.63;;;33.74;30.78
64967;BME280;51710;38.732;-121.358;2023-10-08T00:39:14;100414.88;;;33.68;31.09
64967;BME280;51710;38.732;-121.358;2023-10-08T00:41:43;100423.91;;;33.60;30.26
64967;BME280;51710;38.732;-121.358;2023-10-08T00:44:11;100415.28;;;33.53;30.28
64967;BME280;51710;38.732;-121.358;2023-10-08T00:46:57;100415.09;;;33.49;30.52
64967;BME280;51710;38.732;-121.358;2023-10-08T00:49:27;100410.50;;;33.45;30.11
64967;BME280;51710;38.732;-121.358;2023-10-08T00:52:11;100408.81;;;33.35;30.81
64967;BME280;51710;38.732;-121.358;2023-10-08T00:54:40;100408.13;;;33.30;30.22
64967;BME280;51710;38.732;-121.358;2023-10-08T00:57:33;100402.88;;;33.20;30.56
64967;BME280;51710;38.732;-121.358;2023-10-08T01:00:05;100404.75;;;33.11;30.75
64967;BME280;51710;38.732;-121.358;2023-10-08T01:02:47;100402.72;;;33.02;31.16
64967;BME280;51710;38.732;-121.358;2023-10-08T01:05:26;100397.63;;;32.96;31.18
64967;BME280;51710;38.732;-121.358;2023-10-08T01:08:08;100398.69;;;32.86;31.19
64967;BME280;51710;38.732;-121.358;2023-10-08T01:10:38;100398.31;;;32.79;31.55
64967;BME280;51710;38.732;-121.358;2023-10-08T01:13:09;100399.03;;;32.71;32.07
64967;BME280;51710;38.732;-121.358;2023-10-08T01:15:56;100397.00;;;32.63;32.67
64967;BME280;51710;38.732;-121.358;2023-10-08T01:18:23;100398.03;;;32.54;32.87
64967;BME280;51710;38.732;-121.358;2023-10-08T01:20:58;100397.97;;;32.45;32.40
64967;BME280;51710;38.732;-121.358;2023-10-08T01:23:34;100394.28;;;32.36;32.59
64967;BME280;51710;38.732;-121.358;2023-10-08T01:26:00;100402.47;;;32.28;33.29
64967;BME280;51710;38.732;-121.358;2023-10-08T01:28:38;100395.81;;;32.15;32.79
64967;BME280;51710;38.732;-121.358;2023-10-08T01:31:05;100390.03;;;32.03;33.06
64967;BME280;51710;38.732;-121.358;2023-10-08T01:33:32;100394.44;;;31.90;33.49
64967;BME280;51710;38.732;-121.358;2023-10-08T01:36:12;100386.63;;;31.79;33.33
64967;BME280;51710;38.732;-121.358;2023-10-08T01:38:38;100395.09;;;31.69;33.47
64967;BME280;51710;38.732;-121.358;2023-10-08T01:41:08;100398.34;;;31.57;33.31
64967;BME280;51710;38.732;-121.358;2023-10-08T01:44:06;100400.56;;;31.42;33.72
64967;BME280;51710;38.732;-121.358;2023-10-08T01:46:34;100399.69;;;31.28;33.68
64967;BME280;51710;38.732;-121.358;2023-10-08T01:49:00;100396.88;;;31.14;33.74
64967;BME280;51710;38.732;-121.358;2023-10-08T01:51:33;100405.06;;;31.01;33.85
64967;BME280;51710;38.732;-121.358;2023-10-08T01:54:22;100404.19;;;30.86;34.13
64967;BME280;51710;38.732;-121.358;2023-10-08T01:56:51;100401.34;;;30.73;34.15
64967;BME280;51710;38.732;-121.358;2023-10-08T01:59:18;100402.38;;;30.58;34.31
64967;BME280;51710;38.732;-121.358;2023-10-08T02:01:44;100414.13;;;30.45;34.64
64967;BME280;51710;38.732;-121.358;2023-10-08T02:04:13;100408.31;;;30.28;34.68
64967;BME280;51710;38.732;-121.358;2023-10-08T02:06:42;100409.28;;;30.14;35.25
64967;BME280;51710;38.732;-121.358;2023-10-08T02:19:14;100413.00;;;29.47;36.45
64967;BME280;51710;38.732;-121.358;2023-10-08T02:21:44;100414.28;;;29.31;36.98
64967;BME280;51710;38.732;-121.358;2023-10-08T02:24:12;100408.59;;;29.17;37.18
64967;BME280;51710;38.732;-121.358;2023-10-08T02:26:39;100410.63;;;29.02;37.62
64967;BME280;51710;38.732;-121.358;2023-10-08T02:29:06;100416.22;;;28.87;38.60
64967;BME280;51710;38.732;-121.358;2023-10-08T02:31:40;100408.13;;;28.71;38.70
64967;BME280;51710;38.732;-121.358;2023-10-08T02:34:07;100403.53;;;28.57;39.48
64967;BME280;51710;38.732;-121.358;2023-10-08T02:36:38;100400.84;;;28.42;39.58
64967;BME280;51710;38.732;-121.358;2023-10-08T02:39:08;100408.84;;;28.28;39.57
64967;BME280;51710;38.732;-121.358;2023-10-08T02:41:43;100403.72;;;28.17;40.50
64967;BME280;51710;38.732;-121.358;2023-10-08T02:44:13;100407.88;;;28.04;40.99
64967;BME280;51710;38.732;-121.358;2023-10-08T02:46:41;100401.31;;;27.95;40.51
64967;BME280;51710;38.732;-121.358;2023-10-08T02:49:09;100420.22;;;27.87;41.52
64967;BME280;51710;38.732;-121.358;2023-10-08T02:51:38;100415.84;;;27.81;41.67
64967;BME280;51710;38.732;-121.358;2023-10-08T02:54:07;100415.63;;;27.72;41.71
64967;BME280;51710;38.732;-121.358;2023-10-08T02:56:34;100415.31;;;27.63;42.01
64967;BME280;51710;38.732;-121.358;2023-10-08T02:59:00;100426.56;;;27.52;42.39
64967;BME280;51710;38.732;-121.358;2023-10-08T03:01:28;100418.66;;;27.40;42.46
64967;BME280;51710;38.732;-121.358;2023-10-08T03:03:59;100423.59;;;27.33;43.12
64967;BME280;51710;38.732;-121.358;2023-10-08T03:06:33;100426.56;;;27.27;43.23
64967;BME280;51710;38.732;-121.358;2023-10-08T03:09:00;100425.19;;;27.19;43.43
64967;BME280;51710;38.732;-121.358;2023-10-08T03:11:30;100427.13;;;27.09;43.43
64967;BME280;51710;38.732;-121.358;2023-10-08T03:13:57;100427.63;;;27.01;43.67
64967;BME280;51710;38.732;-121.358;2023-10-08T03:16:24;100413.97;;;26.91;43.85
64967;BME280;51710;38.732;-121.358;2023-10-08T03:19:01;100431.47;;;26.80;43.89
64967;BME280;51710;38.732;-121.358;2023-10-08T03:21:29;100427.88;;;26.69;43.97
64967;BME280;51710;38.732;-121.358;2023-10-08T03:24:04;100428.63;;;26.59;44.21
64967;BME280;51710;38.732;-121.358;2023-10-08T03:26:53;100424.78;;;26.50;44.34
64967;BME280;51710;38.732;-121.358;2023-10-08T03:29:21;100425.88;;;26.44;44.29
64967;BME280;51710;38.732;-121.358;2023-10-08T03:31:47;100429.66;;;26.38;44.22
64967;BME280;51710;38.732;-121.358;2023-10-08T03:34:14;100432.34;;;26.28;44.51
64967;BME280;51710;38.732;-121.358;2023-10-08T03:36:42;100434.50;;;26.21;44.79
64967;BME280;51710;38.732;-121.358;2023-10-08T03:39:15;100442.41;;;26.13;45.11
64967;BME280;51710;38.732;-121.358;2023-10-08T03:41:42;100436.63;;;26.04;45.19
64967;BME280;51710;38.732;-121.358;2023-10-08T03:44:17;100438.75;;;25.97;45.42
64967;BME280;51710;38.732;-121.358;2023-10-08T03:46:46;100438.16;;;25.90;45.66
64967;BME280;51710;38.732;-121.358;2023-10-08T03:49:13;100448.47;;;25.83;45.73
64967;BME280;51710;38.732;-121.358;2023-10-08T03:51:49;100442.44;;;25.76;46.10
64967;BME280;51710;38.732;-121.358;2023-10-08T03:54:20;100442.94;;;25.68;46.41
64967;BME280;51710;38.732;-121.358;2023-10-08T03:56:55;100442.56;;;25.59;46.42
64967;BME280;51710;38.732;-121.358;2023-10-08T03:59:22;100435.19;;;25.55;46.69
64967;BME280;51710;38.732;-121.358;2023-10-08T04:02:07;100447.13;;;25.49;46.74
64967;BME280;51710;38.732;-121.358;2023-10-08T04:04:56;100444.38;;;25.44;46.81
64967;BME280;51710;38.732;-121.358;2023-10-08T04:07:24;100443.53;;;25.38;47.48
64967;BME280;51710;38.732;-121.358;2023-10-08T04:10:02;100448.09;;;25.33;47.33
64967;BME280;51710;38.732;-121.358;2023-10-08T04:12:34;100445.31;;;25.28;47.43
64967;BME280;51710;38.732;-121.358;2023-10-08T04:15:05;100448.50;;;25.20;47.67
64967;BME280;51710;38.732;-121.358;2023-10-08T04:17:38;100447.63;;;25.14;48.16
64967;BME280;51710;38.732;-121.358;2023-10-08T04:20:19;100455.50;;;25.11;48.21
64967;BME280;51710;38.732;-121.358;2023-10-08T04:23:08;100445.13;;;25.08;48.03
64967;BME280;51710;38.732;-121.358;2023-10-08T04:25:44;100442.94;;;25.05;47.93
64967;BME280;51710;38.732;-121.358;2023-10-08T04:28:10;100443.50;;;25.07;47.57
64967;BME280;51710;38.732;-121.358;2023-10-08T04:30:40;100448.13;;;25.06;48.04
64967;BME280;51710;38.732;-121.358;2023-10-08T04:33:08;100448.38;;;25.05;47.82
64967;BME280;51710;38.732;-121.358;2023-10-08T04:35:40;100444.53;;;25.01;47.97
64967;BME280;51710;38.732;-121.358;2023-10-08T04:38:27;100443.38;;;24.97;47.76
64967;BME280;51710;38.732;-121.358;2023-10-08T04:40:55;100444.16;;;24.92;47.58
64967;BME280;51710;38.732;-121.358;2023-10-08T04:43:27;100450.94;;;24.90;47.56
64967;BME280;51710;38.732;-121.358;2023-10-08T04:45:57;100457.50;;;24.89;47.99
64967;BME280;51710;38.732;-121.358;2023-10-08T04:48:27;100449.56;;;24.87;48.29
64967;BME280;51710;38.732;-121.358;2023-10-08T04:50:57;100448.44;;;24.83;48.29
64967;BME280;51710;38.732;-121.358;2023-10-08T04:53:28;100446.50;;;24.79;48.18
64967;BME280;51710;38.732;-121.358;2023-10-08T04:56:04;100445.88;;;24.72;47.86
64967;BME280;51710;38.732;-121.358;2023-10-08T04:58:43;100450.13;;;24.68;48.04
64967;BME280;51710;38.732;-121.358;2023-10-08T05:01:17;100451.97;;;24.62;48.23
64967;BME280;51710;38.732;-121.358;2023-10-08T05:03:48;100448.63;;;24.55;48.32
64967;BME280;51710;38.732;-121.358;2023-10-08T05:06:40;100448.88;;;24.53;48.44
64967;BME280;51710;38.732;-121.358;2023-10-08T05:09:16;100446.69;;;24.50;48.40
64967;BME280;51710;38.732;-121.358;2023-10-08T05:11:52;100455.38;;;24.47;48.69
64967;BME280;51710;38.732;-121.358;2023-10-08T05:14:25;100454.22;;;24.43;48.67
64967;BME280;51710;38.732;-121.358;2023-10-08T05:16:58;100462.09;;;24.40;48.57
64967;BME280;51710;38.732;-121.358;2023-10-08T05:19:48;100453.28;;;24.33;48.60
64967;BME280;51710;38.732;-121.358;2023-10-08T05:22:47;100452.97;;;24.29;48.90
64967;BME280;51710;38.732;-121.358;2023-10-08T05:25:21;100460.03;;;24.30;48.21
64967;BME280;51710;38.732;-121.358;2023-10-08T05:27:47;100462.22;;;24.28;48.51
64967;BME280;51710;38.732;-121.358;2023-10-08T05:30:20;100460.50;;;24.22;48.84
64967;BME280;51710;38.732;-121.358;2023-10-08T05:33:06;100457.72;;;24.17;48.53
64967;BME280;51710;38.732;-121.358;2023-10-08T05:35:53;100459.13;;;24.20;48.39
64967;BME280;51710;38.732;-121.358;2023-10-08T05:38:35;100460.25;;;24.24;48.10
64967;BME280;51710;38.732;-121.358;2023-10-08T05:41:01;100464.38;;;24.26;47.72
64967;BME280;51710;38.732;-121.358;2023-10-08T05:43:32;100468.16;;;24.25;48.11
64967;BME280;51710;38.732;-121.358;2023-10-08T05:46:09;100458.88;;;24.21;47.97
64967;BME280;51710;38.732;-121.358;2023-10-08T05:48:58;100466.13;;;24.16;48.30
64967;BME280;51710;38.732;-121.358;2023-10-08T05:51:39;100465.22;;;24.10;48.02
64967;BME280;51710;38.732;-121.358;2023-10-08T05:54:20;100464.09;;;24.06;48.11
64967;BME280;51710;38.732;-121.358;2023-10-08T05:57:04;100464.03;;;24.01;48.66
64967;BME280;51710;38.732;-121.358;2023-10-08T05:59:50;100471.00;;;23.97;48.57
64967;BME280;51710;38.732;-121.358;2023-10-08T06:02:32;100469.56;;;23.90;49.03
64967;BME280;51710;38.732;-121.358;2023-10-08T06:05:08;100477.06;;;23.83;48.86
64967;BME280;51710;38.732;-121.358;2023-10-08T06:10:17;100472.53;;;23.72;48.72
64967;BME280;51710;38.732;-121.358;2023-10-08T06:13:25;100477.06;;;23.66;48.99
64967;BME280;51710;38.732;-121.358;2023-10-08T06:16:10;100481.13;;;23.64;48.79
64967;BME280;51710;38.732;-121.358;2023-10-08T06:18:56;100480.78;;;23.60;48.35
64967;BME280;51710;38.732;-121.358;2023-10-08T06:21:22;100482.44;;;23.61;48.20
64967;BME280;51710;38.732;-121.358;2023-10-08T06:23:49;100480.28;;;23.63;48.11
64967;BME280;51710;38.732;-121.358;2023-10-08T06:26:19;100481.28;;;23.57;47.93
64967;BME280;51710;38.732;-121.358;2023-10-08T06:28:46;100483.34;;;23.50;48.25
64967;BME280;51710;38.732;-121.358;2023-10-08T06:31:14;100483.75;;;23.42;48.60
64967;BME280;51710;38.732;-121.358;2023-10-08T06:33:43;100488.31;;;23.25;49.45
64967;BME280;51710;38.732;-121.358;2023-10-08T06:36:10;100500.47;;;23.06;49.83
64967;BME280;51710;38.732;-121.358;2023-10-08T06:38:37;100500.22;;;22.91;49.84
64967;BME280;51710;38.732;-121.358;2023-10-08T06:41:11;100500.34;;;22.84;49.65
64967;BME280;51710;38.732;-121.358;2023-10-08T06:43:41;100504.38;;;22.82;49.50
64967;BME280;51710;38.732;-121.358;2023-10-08T06:46:16;100511.69;;;22.81;49.36
64967;BME280;51710;38.732;-121.358;2023-10-08T06:48:45;100510.94;;;22.86;49.38
64967;BME280;51710;38.732;-121.358;2023-10-08T06:51:13;100505.75;;;22.96;49.19
64967;BME280;51710;38.732;-121.358;2023-10-08T06:53:43;100521.38;;;23.05;49.27
64967;BME280;51710;38.732;-121.358;2023-10-08T06:56:14;100516.63;;;23.12;48.87
64967;BME280;51710;38.732;-121.358;2023-10-08T06:58:44;100518.13;;;23.20;48.49
64967;BME280;51710;38.732;-121.358;2023-10-08T07:01:17;100515.41;;;23.20;48.81
64967;BME280;51710;38.732;-121.358;2023-10-08T07:04:10;100521.09;;;23.18;48.65
64967;BME280;51710;38.732;-121.358;2023-10-08T07:06:39;100523.56;;;23.20;48.99
64967;BME280;51710;38.732;-121.358;2023-10-08T07:09:07;100526.88;;;23.22;48.69
64967;BME280;51710;38.732;-121.358;2023-10-08T07:11:52;100526.88;;;23.22;48.70
64967;BME280;51710;38.732;-121.358;2023-10-08T07:14:25;100525.78;;;23.23;48.46
64967;BME280;51710;38.732;-121.358;2023-10-08T07:16:57;100536.56;;;23.18;48.57
64967;BME280;51710;38.732;-121.358;2023-10-08T07:19:30;100533.69;;;23.08;48.64
64967;BME280;51710;38.732;-121.358;2023-10-08T07:22:07;100531.03;;;22.85;50.62
64967;BME280;51710;38.732;-121.358;2023-10-08T07:24:44;100544.22;;;22.53;51.46
64967;BME280;51710;38.732;-121.358;2023-10-08T07:27:17;100541.88;;;22.33;51.71
64967;BME280;51710;38.732;-121.358;2023-10-08T07:29:48;100536.81;;;22.25;51.63
64967;BME280;51710;38.732;-121.358;2023-10-08T07:32:14;100540.97;;;22.28;51.36
64967;BME280;51710;38.732;-121.358;2023-10-08T07:34:44;100541.31;;;22.31;51.49
64967;BME280;51710;38.732;-121.358;2023-10-08T07:37:11;100543.78;;;22.33;51.33
64967;BME280;51710;38.732;-121.358;2023-10-08T07:39:38;100542.47;;;22.35;51.43
64967;BME280;51710;38.732;-121.358;2023-10-08T07:42:12;100545.19;;;22.35;51.22
64967;BME280;51710;38.732;-121.358;2023-10-08T07:44:39;100552.53;;;22.35;51.23
64967;BME280;51710;38.732;-121.358;2023-10-08T07:47:06;100548.38;;;22.32;51.16
64967;BME280;51710;38.732;-121.358;2023-10-08T07:49:41;100549.91;;;22.28;50.82
64967;BME280;51710;38.732;-121.358;2023-10-08T07:52:09;100553.00;;;22.20;51.09
64967;BME280;51710;38.732;-121.358;2023-10-08T07:54:41;100549.56;;;22.13;51.20
64967;BME280;51710;38.732;-121.358;2023-10-08T07:57:07;100546.50;;;22.10;51.23
64967;BME280;51710;38.732;-121.358;2023-10-08T07:59:42;100545.09;;;22.07;51.52
64967;BME280;51710;38.732;-121.358;2023-10-08T08:02:12;100540.72;;;22.06;51.21
64967;BME280;51710;38.732;-121.358;2023-10-08T08:04:39;100543.34;;;22.01;51.58
64967;BME280;51710;38.732;-121.358;2023-10-08T08:07:07;100538.59;;;21.97;51.92
64967;BME280;51710;38.732;-121.358;2023-10-08T08:09:33;100542.03;;;21.92;51.97
64967;BME280;51710;38.732;-121.358;2023-10-08T08:12:07;100546.75;;;21.85;52.32
64967;BME280;51710;38.732;-121.358;2023-10-08T08:14:38;100544.94;;;21.79;52.25
64967;BME280;51710;38.732;-121.358;2023-10-08T08:17:07;100547.31;;;21.76;52.40
64967;BME280;51710;38.732;-121.358;2023-10-08T08:19:41;100544.78;;;21.74;52.70
64967;BME280;51710;38.732;-121.358;2023-10-08T08:22:10;100541.53;;;21.72;52.66
64967;BME280;51710;38.732;-121.358;2023-10-08T08:24:48;100551.78;;;21.70;52.80
64967;BME280;51710;38.732;-121.358;2023-10-08T08:27:19;100548.22;;;21.70;52.65
64967;BME280;51710;38.732;-121.358;2023-10-08T08:29:58;100556.59;;;21.68;52.79
64967;BME280;51710;38.732;-121.358;2023-10-08T08:32:39;100553.75;;;21.63;52.82
64967;BME280;51710;38.732;-121.358;2023-10-08T08:35:07;100553.03;;;21.56;53.28
64967;BME280;51710;38.732;-121.358;2023-10-08T08:37:34;100548.53;;;21.50;53.32
64967;BME280;51710;38.732;-121.358;2023-10-08T08:40:05;100550.53;;;21.43;53.50
64967;BME280;51710;38.732;-121.358;2023-10-08T08:42:51;100550.03;;;21.35;53.46
64967;BME280;51710;38.732;-121.358;2023-10-08T08:45:24;100553.09;;;21.27;53.75
64967;BME280;51710;38.732;-121.358;2023-10-08T08:47:51;100550.91;;;21.17;53.69
64967;BME280;51710;38.732;-121.358;2023-10-08T08:50:18;100560.56;;;21.13;53.98
64967;BME280;51710;38.732;-121.358;2023-10-08T08:52:45;100558.31;;;21.10;53.92
64967;BME280;51710;38.732;-121.358;2023-10-08T08:55:14;100562.09;;;21.09;54.18
64967;BME280;51710;38.732;-121.358;2023-10-08T08:57:43;100560.03;;;21.04;54.39
64967;BME280;51710;38.732;-121.358;2023-10-08T09:00:14;100560.75;;;21.00;54.46
64967;BME280;51710;38.732;-121.358;2023-10-08T09:02:42;100559.28;;;20.97;54.18
64967;BME280;51710;38.732;-121.358;2023-10-08T09:05:10;100561.81;;;20.99;54.14
64967;BME280;51710;38.732;-121.358;2023-10-08T09:08:02;100562.97;;;21.03;53.96
64967;BME280;51710;38.732;-121.358;2023-10-08T09:10:31;100566.28;;;21.05;53.93
64967;BME280;51710;38.732;-121.358;2023-10-08T09:13:04;100562.09;;;21.09;54.05
64967;BME280;51710;38.732;-121.358;2023-10-08T09:15:31;100560.56;;;21.13;54.11
64967;BME280;51710;38.732;-121.358;2023-10-08T09:18:01;100557.41;;;21.16;53.55
64967;BME280;51710;38.732;-121.358;2023-10-08T09:20:29;100560.00;;;21.22;53.28
64967;BME280;51710;38.732;-121.358;2023-10-08T09:23:08;100562.63;;;21.29;52.84
64967;BME280;51710;38.732;-121.358;2023-10-08T09:25:41;100553.81;;;21.34;52.94
64967;BME280;51710;38.732;-121.358;2023-10-08T09:28:07;100561.47;;;21.37;52.67
64967;BME280;51710;38.732;-121.358;2023-10-08T09:30:35;100554.78;;;21.39;52.40
64967;BME280;51710;38.732;-121.358;2023-10-08T09:33:05;100552.06;;;21.39;52.18
64967;BME280;51710;38.732;-121.358;2023-10-08T09:35:32;100545.81;;;21.39;52.50
64967;BME280;51710;38.732;-121.358;2023-10-08T09:38:07;100547.69;;;21.38;52.39
64967;BME280;51710;38.732;-121.358;2023-10-08T09:40:38;100551.59;;;21.42;51.91
64967;BME280;51710;38.732;-121.358;2023-10-08T09:43:06;100551.13;;;21.45;51.96
64967;BME280;51710;38.732;-121.358;2023-10-08T09:45:35;100543.59;;;21.47;52.14
64967;BME280;51710;38.732;-121.358;2023-10-08T09:48:06;100551.97;;;21.46;51.95
64967;BME280;51710;38.732;-121.358;2023-10-08T09:50:40;100548.41;;;21.45;51.93
64967;BME280;51710;38.732;-121.358;2023-10-08T09:53:11;100549.47;;;21.44;51.81
64967;BME280;51710;38.732;-121.358;2023-10-08T09:55:53;100550.53;;;21.43;51.79
64967;BME280;51710;38.732;-121.358;2023-10-08T09:58:25;100547.81;;;21.43;51.68
64967;BME280;51710;38.732;-121.358;2023-10-08T10:00:54;100545.69;;;21.45;51.55
64967;BME280;51710;38.732;-121.358;2023-10-08T10:03:22;100551.13;;;21.45;51.92
64967;BME280;51710;38.732;-121.358;2023-10-08T10:05:51;100548.66;;;21.44;51.57
64967;BME280;51710;38.732;-121.358;2023-10-08T10:08:18;100551.59;;;21.42;51.61
64967;BME280;51710;38.732;-121.358;2023-10-08T10:10:58;100540.75;;;21.42;51.26
64967;BME280;51710;38.732;-121.358;2023-10-08T10:13:28;100543.22;;;21.44;51.06
64967;BME280;51710;38.732;-121.358;2023-10-08T10:15:58;100541.13;;;21.46;50.97
64967;BME280;51710;38.732;-121.358;2023-10-08T10:20:58;100542.75;;;21.47;50.90
64967;BME280;51710;38.732;-121.358;2023-10-08T10:23:47;100540.50;;;21.44;50.76
64967;BME280;51710;38.732;-121.358;2023-10-08T10:31:43;100530.69;;;21.31;51.28
64967;BME280;51710;38.732;-121.358;2023-10-08T10:34:13;100524.69;;;21.29;50.97
64967;BME280;51710;38.732;-121.358;2023-10-08T10:36:43;100536.81;;;21.27;51.17
64967;BME280;51710;38.732;-121.358;2023-10-08T10:39:10;100526.06;;;21.20;51.25
64967;BME280;51710;38.732;-121.358;2023-10-08T10:41:46;100522.41;;;21.14;51.24
64967;BME280;51710;38.732;-121.358;2023-10-08T10:44:15;100524.16;;;21.09;51.49
64967;BME280;51710;38.732;-121.358;2023-10-08T10:46:42;100532.97;;;21.04;51.25
64967;BME280;51710;38.732;-121.358;2023-10-08T10:49:09;100530.50;;;21.03;51.32
64967;BME280;51710;38.732;-121.358;2023-10-08T10:51:48;100526.75;;;21.04;51.16
64967;BME280;51710;38.732;-121.358;2023-10-08T10:54:24;100528.63;;;21.03;51.41
64967;BME280;51710;38.732;-121.358;2023-10-08T10:56:52;100528.38;;;21.05;51.18
64967;BME280;51710;38.732;-121.358;2023-10-08T10:59:33;100531.22;;;21.10;50.89
64967;BME280;51710;38.732;-121.358;2023-10-08T11:02:05;100518.28;;;21.12;50.73
64967;BME280;51710;38.732;-121.358;2023-10-08T11:04:33;100521.13;;;21.17;50.76
64967;BME280;51710;38.732;-121.358;2023-10-08T11:07:11;100523.97;;;21.22;50.91
64967;BME280;51710;38.732;-121.358;2023-10-08T11:09:38;100513.13;;;21.22;51.11
64967;BME280;51710;38.732;-121.358;2023-10-08T11:12:06;100518.19;;;21.18;50.81
64967;BME280;51710;38.732;-121.358;2023-10-08T11:14:40;100513.22;;;21.15;50.92
64967;BME280;51710;38.732;-121.358;2023-10-08T11:17:23;100513.34;;;21.09;51.21
64967;BME280;51710;38.732;-121.358;2023-10-08T11:19:50;100506.81;;;20.98;51.53
64967;BME280;51710;38.732;-121.358;2023-10-08T11:22:18;100501.47;;;20.92;51.68
64967;BME280;51710;38.732;-121.358;2023-10-08T11:24:48;100513.34;;;20.91;50.75
64967;BME280;51710;38.732;-121.358;2023-10-08T11:27:20;100509.97;;;20.95;50.96
64967;BME280;51710;38.732;-121.358;2023-10-08T11:29:56;100512.59;;;21.02;50.81
64967;BME280;51710;38.732;-121.358;2023-10-08T11:32:24;100519.22;;;21.06;50.63
64967;BME280;51710;38.732;-121.358;2023-10-08T11:34:59;100516.03;;;21.09;50.61
64967;BME280;51710;38.732;-121.358;2023-10-08T11:37:31;100527.47;;;21.11;50.25
64967;BME280;51710;38.732;-121.358;2023-10-08T11:40:02;100528.28;;;21.11;50.35
64967;BME280;51710;38.732;-121.358;2023-10-08T11:42:43;100519.94;;;21.13;50.17
64967;BME280;51710;38.732;-121.358;2023-10-08T11:45:10;100517.81;;;21.15;50.08
64967;BME280;51710;38.732;-121.358;2023-10-08T11:47:53;100522.19;;;21.16;50.01
64967;BME280;51710;38.732;-121.358;2023-10-08T11:50:24;100520.09;;;21.18;50.06
64967;BME280;51710;38.732;-121.358;2023-10-08T11:52:58;100519.84;;;21.19;49.72
64967;BME280;51710;38.732;-121.358;2023-10-08T11:55:27;100522.31;;;21.21;49.72
64967;BME280;51710;38.732;-121.358;2023-10-08T11:57:54;100528.78;;;21.20;49.87
64967;BME280;51710;38.732;-121.358;2023-10-08T12:00:20;100529.38;;;21.22;49.38
64967;BME280;51710;38.732;-121.358;2023-10-08T12:02:51;100525.63;;;21.23;49.55
64967;BME280;51710;38.732;-121.358;2023-10-08T12:05:22;100526.78;;;21.27;49.35
64967;BME280;51710;38.732;-121.358;2023-10-08T12:07:52;100532.00;;;21.29;49.33
64967;BME280;51710;38.732;-121.358;2023-10-08T12:10:24;100530.69;;;21.31;49.38
64967;BME280;51710;38.732;-121.358;2023-10-08T12:12:51;100536.59;;;21.28;49.45
64967;BME280;51710;38.732;-121.358;2023-10-08T12:15:25;100535.88;;;21.21;49.62
64967;BME280;51710;38.732;-121.358;2023-10-08T12:18:05;100545.97;;;21.14;49.71
64967;BME280;51710;38.732;-121.358;2023-10-08T12:20:38;100546.19;;;20.94;50.20
64967;BME280;51710;38.732;-121.358;2023-10-08T12:23:05;100552.19;;;20.67;51.26
64967;BME280;51710;38.732;-121.358;2023-10-08T12:25:34;100554.69;;;20.32;52.31
64967;BME280;51710;38.732;-121.358;2023-10-08T12:28:01;100556.16;;;20.03;53.26
64967;BME280;51710;38.732;-121.358;2023-10-08T12:30:33;100558.50;;;19.75;53.32
64967;BME280;51710;38.732;-121.358;2023-10-08T12:33:07;100553.91;;;19.51;53.56
64967;BME280;51710;38.732;-121.358;2023-10-08T12:35:39;100553.13;;;19.44;53.58
64967;BME280;51710;38.732;-121.358;2023-10-08T12:38:06;100552.72;;;19.47;53.68
64967;BME280;51710;38.732;-121.358;2023-10-08T12:40:32;100562.03;;;19.51;53.39
64967;BME280;51710;38.732;-121.358;2023-10-08T12:43:18;100556.22;;;19.54;53.27
64967;BME280;51710;38.732;-121.358;2023-10-08T12:45:50;100554.69;;;19.58;52.99
64967;BME280;51710;38.732;-121.358;2023-10-08T12:48:27;100549.91;;;19.60;53.44
64967;BME280;51710;38.732;-121.358;2023-10-08T12:50:54;100552.84;;;19.59;53.46
64967;BME280;51710;38.732;-121.358;2023-10-08T12:53:28;100556.38;;;19.59;53.66
64967;BME280;51710;38.732;-121.358;2023-10-08T12:56:05;100547.44;;;19.59;53.74
64967;BME280;51710;38.732;-121.358;2023-10-08T12:58:36;100549.28;;;19.58;53.88
64967;BME280;51710;38.732;-121.358;2023-10-08T13:01:16;100550.56;;;19.56;53.85
64967;BME280;51710;38.732;-121.358;2023-10-08T13:03:44;100552.06;;;19.52;54.09
64967;BME280;51710;38.732;-121.358;2023-10-08T13:06:17;100553.31;;;19.49;54.16
64967;BME280;51710;38.732;-121.358;2023-10-08T13:08:58;100557.06;;;19.48;54.32